createdAt,value
2023-05-13T00:01:44.510Z,5.20
2023-05-13T00:04:11.435Z,5.20
2023-05-13T00:06:38.436Z,5.10
2023-05-13T00:09:05.510Z,5.90
2023-05-13T00:11:32.252Z,5.20
2023-05-13T00:13:59.014Z,5.00
2023-05-13T00:16:27.761Z,5.30
2023-05-13T00:18:56.541Z,5.20
2023-05-13T00:21:23.891Z,5.40
2023-05-13T00:23:50.777Z,5.40
2023-05-13T00:26:17.646Z,4.60
2023-05-13T00:28:44.931Z,5.10
2023-05-13T00:31:11.709Z,4.60
2023-05-13T00:33:38.710Z,4.90
2023-05-13T00:36:07.321Z,5.10
2023-05-13T00:38:35.252Z,5.80
2023-05-13T00:41:03.083Z,5.20
2023-05-13T00:43:30.790Z,5.40
2023-05-13T00:45:57.701Z,5.30
2023-05-13T00:48:25.362Z,5.80
2023-05-13T00:50:52.160Z,5.30
2023-05-13T00:53:19.058Z,5.60
2023-05-13T00:55:46.192Z,5.00
2023-05-13T00:58:13.453Z,5.40
2023-05-13T01:01:05.098Z,5.30
2023-05-13T01:03:56.760Z,5.10
2023-05-13T01:06:32.948Z,5.60
2023-05-13T01:09:16.042Z,5.70
2023-05-13T01:11:42.774Z,5.70
2023-05-13T01:14:12.902Z,5.10
2023-05-13T01:17:06.012Z,5.30
2023-05-13T01:19:46.898Z,6.00
2023-05-13T01:22:14.429Z,5.30
2023-05-13T01:24:41.504Z,5.00
2023-05-13T01:27:08.719Z,5.30
2023-05-13T01:29:35.976Z,4.20
2023-05-13T01:32:03.187Z,4.70
2023-05-13T01:34:29.992Z,5.30
2023-05-13T01:36:56.721Z,5.80
2023-05-13T01:39:23.849Z,5.40
2023-05-13T01:41:52.075Z,5.60
2023-05-13T01:44:19.286Z,5.10
2023-05-13T01:46:47.926Z,5.40
2023-05-13T01:49:15.121Z,5.00
2023-05-13T01:51:42.146Z,5.20
2023-05-13T01:54:09.109Z,5.10
2023-05-13T01:56:39.154Z,5.70
2023-05-13T01:59:06.223Z,5.40
2023-05-13T02:01:33.069Z,4.40
2023-05-13T02:04:00.281Z,4.80
2023-05-13T02:06:28.097Z,4.80
2023-05-13T02:08:55.127Z,5.10
2023-05-13T02:11:22.659Z,4.80
2023-05-13T02:13:49.410Z,5.00
2023-05-13T02:16:17.399Z,5.50
2023-05-13T02:18:44.197Z,5.80
2023-05-13T02:21:11.141Z,5.00
2023-05-13T02:23:38.697Z,4.90
2023-05-13T02:26:05.470Z,4.70
2023-05-13T02:28:32.238Z,5.40
2023-05-13T02:30:59.235Z,5.30
2023-05-13T02:33:26.989Z,5.50
2023-05-13T02:35:53.735Z,5.70
2023-05-13T02:40:31.044Z,5.70
2023-05-13T02:42:58.494Z,5.80
2023-05-13T02:45:28.919Z,5.20
2023-05-13T02:47:56.834Z,5.40
2023-05-13T02:50:23.680Z,5.10
2023-05-13T02:52:51.223Z,5.50
2023-05-13T02:55:18.070Z,5.10
2023-05-13T02:57:45.097Z,5.10
2023-05-13T03:00:12.597Z,4.70
2023-05-13T03:02:39.532Z,5.20
2023-05-13T03:05:07.398Z,5.50
2023-05-13T03:07:34.626Z,5.60
2023-05-13T03:10:01.253Z,5.20
2023-05-13T03:12:28.953Z,6.20
2023-05-13T03:14:55.912Z,4.90
2023-05-13T03:17:22.755Z,5.10
2023-05-13T03:19:49.833Z,5.30
2023-05-13T03:22:16.413Z,4.90
2023-05-13T03:24:43.741Z,4.90
2023-05-13T03:27:10.780Z,5.30
2023-05-13T03:29:38.002Z,4.70
2023-05-13T03:32:06.270Z,5.10
2023-05-13T03:34:33.144Z,5.10
2023-05-13T03:37:00.099Z,5.00
2023-05-13T03:39:28.469Z,4.80
2023-05-13T03:41:55.365Z,4.60
2023-05-13T03:44:22.040Z,3.90
2023-05-13T03:46:48.993Z,4.80
2023-05-13T03:49:18.497Z,4.40
2023-05-13T03:51:45.555Z,4.60
2023-05-13T03:54:12.491Z,4.20
2023-05-13T03:56:39.779Z,4.30
2023-05-13T03:59:06.534Z,4.70
2023-05-13T04:01:35.928Z,4.60
2023-05-13T04:04:03.012Z,4.50
2023-05-13T04:06:31.272Z,5.20
2023-05-13T04:08:57.876Z,5.40
2023-05-13T04:11:25.413Z,6.50
2023-05-13T04:13:52.158Z,5.80
2023-05-13T04:16:18.878Z,5.90
2023-05-13T04:18:45.498Z,5.60
2023-05-13T04:21:12.151Z,5.70
2023-05-13T04:23:40.248Z,4.60
2023-05-13T04:26:06.893Z,4.00
2023-05-13T04:28:34.282Z,3.90
2023-05-13T04:31:02.207Z,4.20
2023-05-13T04:33:29.615Z,4.70
2023-05-13T04:35:56.160Z,4.50
2023-05-13T04:38:22.862Z,3.80
2023-05-13T04:40:50.083Z,4.50
2023-05-13T04:43:22.386Z,4.50
2023-05-13T04:45:55.637Z,4.40
2023-05-13T04:48:22.508Z,6.00
2023-05-13T04:50:50.085Z,6.60
2023-05-13T04:53:18.341Z,7.90
2023-05-13T04:55:47.798Z,9.40
2023-05-13T04:58:14.792Z,8.80
2023-05-13T05:00:43.981Z,9.00
2023-05-13T05:03:10.893Z,8.90
2023-05-13T05:05:37.772Z,8.10
2023-05-13T05:08:05.219Z,8.60
2023-05-13T05:10:31.747Z,7.70
2023-05-13T05:13:00.864Z,5.40
2023-05-13T05:15:29.331Z,6.30
2023-05-13T05:17:58.661Z,6.10
2023-05-13T05:20:26.047Z,6.80
2023-05-13T05:22:55.976Z,5.60
2023-05-13T05:25:25.543Z,7.00
2023-05-13T05:27:52.221Z,7.10
2023-05-13T05:30:19.413Z,7.20
2023-05-13T05:32:51.326Z,7.80
2023-05-13T05:35:19.260Z,8.10
2023-05-13T05:37:45.991Z,8.60
2023-05-13T05:40:13.037Z,9.40
2023-05-13T05:42:40.022Z,7.40
2023-05-13T05:45:07.576Z,5.10
2023-05-13T05:47:35.870Z,6.30
2023-05-13T05:50:02.865Z,6.40
2023-05-13T05:52:30.147Z,3.20
2023-05-13T05:54:58.291Z,3.60
2023-05-13T05:57:24.922Z,3.50
2023-05-13T05:59:51.666Z,2.60
2023-05-13T06:02:18.966Z,3.00
2023-05-13T06:04:45.561Z,2.50
2023-05-13T06:07:13.406Z,1.90
2023-05-13T06:09:40.399Z,2.10
2023-05-13T06:12:07.939Z,2.10
2023-05-13T06:14:36.052Z,2.20
2023-05-13T06:17:02.840Z,2.00
2023-05-13T06:19:29.645Z,1.60
2023-05-13T06:21:57.194Z,1.70
2023-05-13T06:24:24.064Z,1.60
2023-05-13T06:26:50.617Z,1.70
2023-05-13T06:29:17.207Z,2.10
2023-05-13T06:31:43.976Z,1.80
2023-05-13T06:34:15.791Z,2.00
2023-05-13T06:36:43.535Z,1.60
2023-05-13T06:39:11.172Z,1.70
2023-05-13T06:41:39.043Z,2.10
2023-05-13T06:44:09.411Z,2.10
2023-05-13T06:46:39.005Z,1.40
2023-05-13T06:49:05.918Z,2.10
2023-05-13T06:51:34.513Z,1.70
2023-05-13T06:54:01.103Z,1.40
2023-05-13T06:56:28.918Z,1.60
2023-05-13T06:58:55.715Z,1.70
2023-05-13T07:01:22.445Z,2.00
2023-05-13T07:03:49.236Z,2.20
2023-05-13T07:06:15.989Z,1.50
2023-05-13T07:08:42.609Z,1.90
2023-05-13T07:11:09.167Z,1.50
2023-05-13T07:13:35.821Z,1.90
2023-05-13T07:16:02.610Z,2.00
2023-05-13T07:18:29.642Z,1.60
2023-05-13T07:20:56.503Z,1.80
2023-05-13T07:23:23.451Z,1.50
2023-05-13T07:25:50.906Z,1.70
2023-05-13T07:28:19.413Z,1.70
2023-05-13T07:30:46.233Z,1.70
2023-05-13T07:33:13.030Z,1.80
2023-05-13T07:35:39.709Z,1.60
2023-05-13T07:38:06.664Z,1.60
2023-05-13T07:40:33.855Z,1.40
2023-05-13T07:43:00.466Z,1.40
2023-05-13T07:45:27.488Z,1.20
2023-05-13T07:47:54.424Z,1.30
2023-05-13T07:50:20.966Z,1.40
2023-05-13T07:52:48.698Z,1.50
2023-05-13T07:55:16.630Z,1.30
2023-05-13T07:57:45.439Z,1.60
2023-05-13T08:00:13.046Z,1.30
2023-05-13T08:02:42.132Z,1.50
2023-05-13T08:05:10.388Z,1.30
2023-05-13T08:07:38.540Z,1.30
2023-05-13T08:10:06.196Z,1.20
2023-05-13T08:12:33.224Z,1.40
2023-05-13T08:15:00.972Z,1.60
2023-05-13T08:17:29.106Z,1.50
2023-05-13T08:19:55.691Z,2.40
2023-05-13T08:22:22.394Z,1.50
2023-05-13T08:24:49.130Z,1.60
2023-05-13T08:27:16.423Z,2.10
2023-05-13T08:29:43.103Z,1.30
2023-05-13T08:32:09.869Z,1.00
2023-05-13T08:34:36.668Z,1.40
2023-05-13T08:37:03.650Z,1.40
2023-05-13T08:39:30.578Z,1.20
2023-05-13T08:41:57.338Z,1.30
2023-05-13T08:44:28.449Z,1.20
2023-05-13T08:47:13.066Z,1.40
2023-05-13T08:49:39.988Z,1.30
2023-05-13T08:52:06.570Z,1.40
2023-05-13T08:54:33.304Z,1.20
2023-05-13T08:57:00.209Z,1.20
2023-05-13T08:59:26.777Z,1.50
2023-05-13T09:01:54.427Z,1.10
2023-05-13T09:04:21.119Z,1.20
2023-05-13T09:06:47.848Z,1.20
2023-05-13T09:09:14.474Z,1.30
2023-05-13T09:11:44.672Z,1.10
2023-05-13T09:14:13.093Z,1.00
2023-05-13T09:16:39.681Z,1.10
2023-05-13T09:19:07.541Z,1.70
2023-05-13T09:21:35.486Z,1.20
2023-05-13T09:24:11.173Z,1.20
2023-05-13T09:26:39.686Z,1.50
2023-05-13T09:29:28.442Z,1.20
2023-05-13T09:31:57.542Z,1.50
2023-05-13T09:34:34.250Z,1.10
2023-05-13T09:37:01.533Z,1.80
2023-05-13T09:39:28.439Z,1.20
2023-05-13T09:41:55.887Z,1.80
2023-05-13T09:44:22.658Z,1.60
2023-05-13T09:46:52.957Z,1.30
2023-05-13T09:49:23.907Z,1.50
2023-05-13T09:51:50.676Z,1.10
2023-05-13T09:54:17.444Z,1.30
2023-05-13T09:56:44.185Z,1.00
2023-05-13T09:59:10.794Z,0.90
2023-05-13T10:01:37.655Z,1.30
2023-05-13T10:04:05.562Z,1.40
2023-05-13T10:06:32.630Z,1.40
2023-05-13T10:09:02.631Z,1.10
2023-05-13T10:11:30.396Z,1.10
2023-05-13T10:14:02.703Z,1.10
2023-05-13T10:16:29.593Z,1.40
2023-05-13T10:18:58.244Z,1.00
2023-05-13T10:21:26.165Z,1.20
2023-05-13T10:23:53.175Z,1.40
2023-05-13T10:26:20.844Z,1.30
2023-05-13T10:28:48.338Z,1.10
2023-05-13T10:31:18.885Z,1.40
2023-05-13T10:33:46.195Z,1.40
2023-05-13T10:36:25.213Z,1.40
2023-05-13T10:39:04.422Z,0.90
2023-05-13T10:41:52.740Z,1.40
2023-05-13T10:44:19.366Z,1.50
2023-05-13T10:46:49.156Z,1.10
2023-05-13T10:49:16.230Z,1.30
2023-05-13T10:51:49.493Z,1.50
2023-05-13T10:54:24.081Z,1.10
2023-05-13T10:56:57.328Z,1.20
2023-05-13T10:59:23.947Z,1.10
2023-05-13T11:01:50.614Z,1.00
2023-05-13T11:04:18.658Z,1.20
2023-05-13T11:06:48.224Z,1.20
2023-05-13T11:09:28.868Z,1.60
2023-05-13T11:11:57.434Z,2.80
2023-05-13T11:14:24.910Z,2.50
2023-05-13T11:17:01.251Z,1.30
2023-05-13T11:19:30.076Z,1.30
2023-05-13T11:22:17.763Z,1.20
2023-05-13T11:24:45.282Z,1.20
2023-05-13T11:27:15.919Z,1.20
2023-05-13T11:32:51.467Z,1.10
2023-05-13T11:35:25.825Z,1.10
2023-05-13T11:37:53.948Z,1.20
2023-05-13T11:40:33.344Z,2.50
2023-05-13T11:43:00.576Z,1.40
2023-05-13T11:45:28.049Z,1.50
2023-05-13T11:47:55.449Z,1.40
2023-05-13T11:50:22.740Z,1.40
2023-05-13T11:52:56.741Z,1.60
2023-05-13T11:55:30.820Z,1.20
2023-05-13T11:57:58.357Z,1.20
2023-05-13T12:00:35.133Z,1.40
2023-05-13T12:03:08.404Z,1.20
2023-05-13T12:05:35.407Z,1.60
2023-05-13T12:08:02.577Z,1.40
2023-05-13T12:10:29.219Z,1.30
2023-05-13T12:12:56.406Z,1.30
2023-05-13T12:15:26.581Z,1.10
2023-05-13T12:17:53.955Z,1.10
2023-05-13T12:20:21.699Z,1.50
2023-05-13T12:22:49.274Z,1.40
2023-05-13T12:25:38.100Z,1.20
2023-05-13T12:28:11.521Z,1.30
2023-05-13T12:30:39.820Z,1.60
2023-05-13T12:33:20.909Z,1.30
2023-05-13T12:35:49.695Z,1.30
2023-05-13T12:38:17.624Z,1.40
2023-05-13T12:40:45.430Z,1.60
2023-05-13T12:43:12.699Z,1.20
2023-05-13T12:45:43.254Z,1.50
2023-05-13T12:48:11.341Z,1.40
2023-05-13T12:50:38.215Z,1.90
2023-05-13T12:53:05.287Z,1.60
2023-05-13T12:55:32.199Z,1.50
2023-05-13T12:58:01.492Z,1.30
2023-05-13T13:00:28.975Z,1.60
2023-05-13T13:02:56.157Z,1.40
2023-05-13T13:05:23.752Z,1.50
2023-05-13T13:07:51.139Z,1.90
2023-05-13T13:10:17.977Z,1.60
2023-05-13T13:12:44.829Z,1.30
2023-05-13T13:15:11.778Z,1.40
2023-05-13T13:17:38.682Z,1.20
2023-05-13T13:20:07.807Z,1.30
2023-05-13T13:22:36.460Z,1.50
2023-05-13T13:25:06.421Z,2.30
2023-05-13T13:27:34.107Z,1.80
2023-05-13T13:30:00.740Z,1.80
2023-05-13T13:32:27.587Z,1.40
2023-05-13T13:34:54.395Z,1.70
2023-05-13T13:37:21.088Z,1.50
2023-05-13T13:39:47.870Z,1.60
2023-05-13T13:42:14.544Z,1.50
2023-05-13T13:44:41.658Z,1.50
2023-05-13T13:47:08.841Z,1.30
2023-05-13T13:49:35.402Z,1.30
2023-05-13T13:52:01.991Z,1.40
2023-05-13T13:54:28.868Z,3.50
2023-05-13T13:56:55.497Z,1.80
2023-05-13T13:59:22.202Z,1.20
2023-05-13T14:01:49.088Z,1.40
2023-05-13T14:04:19.158Z,1.80
2023-05-13T14:06:46.188Z,2.60
2023-05-13T14:09:12.739Z,1.60
2023-05-13T14:11:39.489Z,2.20
2023-05-13T14:14:06.722Z,2.40
2023-05-13T14:16:33.881Z,3.40
2023-05-13T14:19:00.743Z,8.00
2023-05-13T14:21:27.334Z,9.70
2023-05-13T14:23:54.004Z,17.20
2023-05-13T14:26:21.207Z,2.10
2023-05-13T14:28:47.797Z,2.20
2023-05-13T14:31:14.517Z,1.60
2023-05-13T14:33:41.080Z,1.90
2023-05-13T14:36:10.381Z,2.60
2023-05-13T14:38:39.253Z,2.00
2023-05-13T14:41:05.985Z,2.10
2023-05-13T14:43:32.824Z,1.90
2023-05-13T14:45:59.494Z,1.70
2023-05-13T14:48:26.862Z,2.00
2023-05-13T14:50:53.907Z,2.20
2023-05-13T14:53:20.835Z,2.80
2023-05-13T14:57:12.249Z,3.10
2023-05-13T14:59:39.007Z,2.90
2023-05-13T15:02:06.094Z,3.20
2023-05-13T15:04:32.918Z,2.50
2023-05-13T15:06:59.725Z,3.20
2023-05-13T15:09:26.550Z,3.30
2023-05-13T15:11:56.370Z,3.30
2023-05-13T15:14:25.723Z,3.10
2023-05-13T15:16:53.193Z,3.70
2023-05-13T15:19:20.123Z,3.80
2023-05-13T15:21:46.827Z,4.20
2023-05-13T15:24:13.552Z,4.00
2023-05-13T15:26:40.375Z,5.10
2023-05-13T15:29:07.174Z,6.00
2023-05-13T15:31:33.982Z,6.00
2023-05-13T15:34:02.470Z,6.00
2023-05-13T15:36:29.314Z,3.90
2023-05-13T15:38:56.057Z,10.00
2023-05-13T15:41:22.835Z,7.00
2023-05-13T15:43:49.560Z,5.60
2023-05-13T15:46:16.791Z,2.70
2023-05-13T15:48:43.875Z,2.40
2023-05-13T15:51:10.629Z,3.40
2023-05-13T15:53:37.341Z,2.00
2023-05-13T15:56:04.202Z,2.20
2023-05-13T15:58:31.271Z,2.10
2023-05-13T16:00:58.422Z,2.20
2023-05-13T16:03:25.331Z,2.00
2023-05-13T16:05:53.003Z,2.20
2023-05-13T16:08:19.907Z,1.80
2023-05-13T16:10:49.596Z,2.60
2023-05-13T16:13:16.364Z,2.50
2023-05-13T16:15:43.123Z,1.80
2023-05-13T16:18:09.954Z,2.20
2023-05-13T16:20:36.694Z,2.20
2023-05-13T16:23:03.578Z,2.30
2023-05-13T16:25:30.402Z,2.70
2023-05-13T16:27:57.265Z,3.50
2023-05-13T16:30:24.132Z,3.50
2023-05-13T16:32:54.654Z,2.80
2023-05-13T16:35:21.692Z,2.40
2023-05-13T16:37:48.994Z,2.40
2023-05-13T16:40:15.828Z,2.70
2023-05-13T16:42:42.619Z,3.00
2023-05-13T16:45:09.851Z,2.90
2023-05-13T16:47:36.640Z,2.70
2023-05-13T16:50:04.039Z,2.70
2023-05-13T16:52:34.419Z,3.20
2023-05-13T16:55:01.257Z,4.10
2023-05-13T16:57:28.181Z,3.70
2023-05-13T16:59:55.246Z,3.80
2023-05-13T17:02:22.198Z,3.80
2023-05-13T17:04:51.575Z,4.10
2023-05-13T17:07:18.325Z,5.90
2023-05-13T17:09:48.161Z,7.90
2023-05-13T17:12:16.774Z,4.70
2023-05-13T17:14:43.766Z,7.30
2023-05-13T17:17:10.693Z,6.00
2023-05-13T17:19:37.547Z,6.70
2023-05-13T17:22:04.555Z,6.50
2023-05-13T17:24:31.768Z,5.60
2023-05-13T17:26:58.548Z,6.40
2023-05-13T17:29:26.022Z,6.60
2023-05-13T17:31:52.987Z,8.80
2023-05-13T17:34:20.041Z,8.10
2023-05-13T17:36:48.657Z,8.80
2023-05-13T17:39:16.930Z,14.90
2023-05-13T17:41:43.951Z,8.70
2023-05-13T17:44:10.888Z,8.20
2023-05-13T17:46:37.804Z,12.60
2023-05-13T17:49:04.719Z,17.20
2023-05-13T17:51:31.663Z,12.20
2023-05-13T17:53:59.565Z,7.50
2023-05-13T17:56:26.870Z,6.20
2023-05-13T17:58:53.688Z,8.20
2023-05-13T18:01:21.972Z,6.90
2023-05-13T18:03:48.951Z,6.30
2023-05-13T18:06:16.267Z,6.00
2023-05-13T18:08:43.177Z,5.70
2023-05-13T18:11:09.948Z,7.40
2023-05-13T18:13:36.780Z,6.10
2023-05-13T18:16:06.135Z,5.90
2023-05-13T18:18:33.084Z,6.00
2023-05-13T18:21:00.468Z,4.80
2023-05-13T18:23:27.283Z,6.20
2023-05-13T18:25:56.176Z,4.60
2023-05-13T18:28:23.779Z,6.90
2023-05-13T18:30:50.620Z,5.40
2023-05-13T18:33:19.766Z,5.10
2023-05-13T18:35:46.565Z,4.50
2023-05-13T18:38:13.338Z,4.90
2023-05-13T18:40:40.078Z,3.70
2023-05-13T18:43:06.819Z,4.40
2023-05-13T18:45:33.689Z,3.80
2023-05-13T18:48:00.488Z,4.30
2023-05-13T18:50:27.778Z,3.90
2023-05-13T18:52:54.644Z,4.10
2023-05-13T18:55:21.644Z,4.50
2023-05-13T18:57:49.333Z,4.20
2023-05-13T19:00:16.502Z,3.90
2023-05-13T19:02:43.584Z,3.80
2023-05-13T19:05:10.554Z,3.90
2023-05-13T19:07:37.371Z,6.20
2023-05-13T19:10:04.342Z,7.60
2023-05-13T19:12:31.091Z,7.50
2023-05-13T19:14:57.836Z,7.70
2023-05-13T19:17:24.680Z,7.70
2023-05-13T19:19:51.503Z,8.00
2023-05-13T19:22:18.281Z,6.50
2023-05-13T19:24:45.027Z,5.20
2023-05-13T19:27:12.247Z,5.90
2023-05-13T19:29:38.968Z,5.20
2023-05-13T19:32:06.340Z,5.60
2023-05-13T19:34:33.108Z,4.40
2023-05-13T19:36:59.951Z,5.00
2023-05-13T19:39:26.667Z,4.40
2023-05-13T19:41:53.455Z,5.00
2023-05-13T19:44:20.291Z,5.20
2023-05-13T19:46:47.201Z,4.80
2023-05-13T19:49:14.081Z,4.70
2023-05-13T19:51:42.082Z,4.40
2023-05-13T19:54:12.515Z,5.40
2023-05-13T19:56:39.298Z,5.80
2023-05-13T19:59:06.041Z,5.90
2023-05-13T20:01:32.850Z,6.70
2023-05-13T20:03:59.756Z,5.90
2023-05-13T20:06:26.635Z,5.50
2023-05-13T20:08:53.447Z,5.00
2023-05-13T20:11:20.566Z,5.20
2023-05-13T20:13:47.297Z,5.30
2023-05-13T20:16:14.059Z,5.60
2023-05-13T20:18:41.360Z,5.30
2023-05-13T20:21:08.222Z,5.80
2023-05-13T20:23:35.000Z,6.70
2023-05-13T20:26:02.223Z,6.00
2023-05-13T20:28:29.011Z,5.00
2023-05-13T20:30:56.218Z,7.10
2023-05-13T20:33:23.013Z,6.90
2023-05-13T20:35:49.802Z,7.00
2023-05-13T20:38:16.578Z,8.10
2023-05-13T20:40:43.304Z,6.20
2023-05-13T20:43:10.082Z,8.40
2023-05-13T20:45:39.647Z,7.10
2023-05-13T20:48:06.750Z,7.20
2023-05-13T20:50:33.575Z,7.00
2023-05-13T20:53:00.727Z,7.20
2023-05-13T20:55:27.682Z,6.90
2023-05-13T20:57:54.445Z,6.40
2023-05-13T21:00:21.680Z,5.40
2023-05-13T21:02:50.454Z,6.10
2023-05-13T21:05:17.565Z,6.10
2023-05-13T21:07:44.327Z,6.90
2023-05-13T21:10:11.216Z,7.60
2023-05-13T21:12:38.084Z,7.20
2023-05-13T21:15:05.461Z,7.10
2023-05-13T21:17:32.241Z,7.10
2023-05-13T21:19:58.993Z,7.30
2023-05-13T21:22:25.864Z,7.80
2023-05-13T21:24:52.629Z,7.30
2023-05-13T21:27:19.443Z,7.50
2023-05-13T21:29:46.210Z,5.90
2023-05-13T21:32:13.096Z,6.30
2023-05-13T21:34:39.971Z,6.50
2023-05-13T21:37:06.787Z,6.00
2023-05-13T21:39:33.613Z,7.30
2023-05-13T21:42:00.763Z,7.60
2023-05-13T21:44:28.925Z,7.90
2023-05-13T21:46:55.964Z,6.00
2023-05-13T21:49:22.784Z,6.60
2023-05-13T21:51:49.632Z,5.80
2023-05-13T21:54:19.222Z,6.00
2023-05-13T21:56:46.728Z,5.60
2023-05-13T21:59:13.661Z,6.30
2023-05-13T22:01:40.525Z,6.60
2023-05-13T22:04:07.463Z,5.90
2023-05-13T22:06:34.626Z,6.80
2023-05-13T22:09:01.799Z,6.20
2023-05-13T22:11:28.583Z,6.30
2023-05-13T22:13:55.784Z,7.40
2023-05-13T22:16:22.854Z,6.90
2023-05-13T22:18:50.991Z,6.20
2023-05-13T22:21:17.943Z,5.90
2023-05-13T22:23:44.762Z,6.00
2023-05-13T22:26:12.130Z,5.50
2023-05-13T22:28:39.178Z,5.90
2023-05-13T22:31:06.349Z,5.60
2023-05-13T22:33:33.105Z,6.30
2023-05-13T22:35:59.863Z,5.80
2023-05-13T22:38:29.572Z,6.40
2023-05-13T22:40:56.425Z,5.50
2023-05-13T22:43:23.144Z,5.90
2023-05-13T22:45:49.919Z,5.50
2023-05-13T22:48:16.746Z,6.10
2023-05-13T22:50:43.745Z,5.50
2023-05-13T22:53:10.576Z,5.80
2023-05-13T22:55:37.628Z,6.10
2023-05-13T22:58:04.875Z,5.60
2023-05-13T23:00:32.131Z,5.50
2023-05-13T23:06:13.726Z,5.90
2023-05-13T23:08:40.556Z,6.10
2023-05-13T23:11:07.323Z,6.40
2023-05-13T23:13:34.099Z,5.70
2023-05-13T23:16:00.882Z,5.60
2023-05-13T23:18:28.312Z,6.00
2023-05-13T23:20:56.114Z,5.50
2023-05-13T23:23:23.037Z,6.30
2023-05-13T23:25:50.382Z,5.70
2023-05-13T23:28:17.629Z,5.80
2023-05-13T23:30:44.411Z,5.80
2023-05-13T23:33:11.148Z,5.80
2023-05-13T23:35:38.073Z,6.40
2023-05-13T23:38:04.878Z,6.00
2023-05-13T23:40:31.652Z,5.70
2023-05-13T23:42:58.403Z,6.50
2023-05-13T23:45:25.241Z,5.30
2023-05-13T23:47:52.004Z,5.50
2023-05-13T23:50:19.011Z,6.00
2023-05-13T23:52:45.868Z,6.10
2023-05-13T23:55:12.608Z,6.10
2023-05-13T23:57:39.428Z,6.50
